Time;durP1;ratioP1;P1;durP2;ratioP2;P2;SDS_P1;SDS_P2;PMS_P1;PMS_P2;Temp;Humidity;BMP_temperature;BMP_pressure;BME280_temperature;BME280_humidity;BME280_pressure;Samples;Min_cycle;Max_cycle;Signal;HPM_P1;HPM_P2
2022/01/31 00:02:21;;;;;;;25.95;5.45;;;;;;;;;;5013933;28;20353;-72
2022/01/31 00:04:47;;;;;;;29.38;5.32;;;;;;;;;;5013695;28;20029;-72
2022/01/31 00:07:13;;;;;;;32.22;6.45;;;;;;;;;;5013527;28;20113;-73
2022/01/31 00:09:42;;;;;;;23.90;5.45;;;;;;;;;;5013689;28;20026;-73
2022/01/31 00:12:11;;;;;;;23.70;4.63;;;;;;;;;;5013921;28;20121;-73
2022/01/31 00:14:43;;;;;;;38.05;6.95;;;;;;;;;;5015002;28;20108;-73
2022/01/31 00:17:10;;;;;;;28.80;5.57;;;;;;;;;;5015711;28;20088;-72
2022/01/31 00:19:36;;;;;;;27.95;4.72;;;;;;;;;;5015297;28;20049;-73
2022/01/31 00:22:03;;;;;;;23.90;5.55;;;;;;;;;;5014133;28;20090;-73
2022/01/31 00:24:29;;;;;;;28.08;4.90;;;;;;;;;;5031524;28;20037;-72
2022/01/31 00:26:55;;;;;;;33.70;5.43;;;;;;;;;;5033037;28;20033;-73
2022/01/31 00:29:21;;;;;;;20.10;4.13;;;;;;;;;;5032814;28;20031;-73
2022/01/31 00:31:47;;;;;;;22.92;5.43;;;;;;;;;;5033026;28;20112;-72
2022/01/31 00:34:13;;;;;;;21.90;5.28;;;;;;;;;;5031162;28;20105;-72
2022/01/31 00:36:39;;;;;;;22.33;5.15;;;;;;;;;;5031526;28;20028;-72
2022/01/31 00:39:05;;;;;;;33.40;5.93;;;;;;;;;;5032747;28;20373;-72
2022/01/31 00:41:31;;;;;;;29.40;6.30;;;;;;;;;;5030269;28;20479;-73
2022/01/31 00:44:12;;;;;;;;;;;;;;;;;;;;;
2022/01/31 00:46:35;;;;;;;31.83;6.93;;;;;;;;;;5031171;28;20443;-72
2022/01/31 00:49:01;;;;;;;30.30;6.68;;;;;;;;;;5032252;28;20026;-72
2022/01/31 00:51:27;;;;;;;28.13;6.00;;;;;;;;;;5032605;28;20030;-72
2022/01/31 00:53:53;;;;;;;25.95;5.38;;;;;;;;;;5032324;28;20025;-72
2022/01/31 00:56:19;;;;;;;24.92;5.40;;;;;;;;;;5032048;28;20495;-72
2022/01/31 00:58:45;;;;;;;24.25;4.18;;;;;;;;;;5030700;28;20025;-72
2022/01/31 01:01:11;;;;;;;27.40;4.65;;;;;;;;;;5032111;28;20029;-72
2022/01/31 01:03:37;;;;;;;26.85;4.80;;;;;;;;;;5032011;28;20116;-72
2022/01/31 01:06:03;;;;;;;25.02;6.22;;;;;;;;;;5032262;28;20057;-71
2022/01/31 01:08:29;;;;;;;24.45;5.38;;;;;;;;;;5031604;28;20029;-72
2022/01/31 01:10:55;;;;;;;22.48;4.43;;;;;;;;;;5032091;28;20032;-72
2022/01/31 01:13:21;;;;;;;29.85;6.72;;;;;;;;;;5031476;28;20028;-71
2022/01/31 01:15:47;;;;;;;26.33;4.88;;;;;;;;;;5030695;28;20024;-72
2022/01/31 01:18:13;;;;;;;26.55;4.82;;;;;;;;;;5031951;28;20029;-72
2022/01/31 01:20:39;;;;;;;19.20;4.28;;;;;;;;;;5031762;28;20052;-72
2022/01/31 01:23:05;;;;;;;27.98;5.53;;;;;;;;;;5024757;28;20030;-72
2022/01/31 01:25:33;;;;;;;29.35;5.15;;;;;;;;;;5012064;28;20100;-72
2022/01/31 01:27:59;;;;;;;29.63;6.10;;;;;;;;;;5011840;28;20026;-72
2022/01/31 01:30:25;;;;;;;18.00;4.22;;;;;;;;;;5012192;28;20030;-72
2022/01/31 01:35:25;;;;;;;34.60;6.35;;;;;;;;;;5012139;28;20059;-72
2022/01/31 01:37:51;;;;;;;28.88;6.20;;;;;;;;;;5012064;28;20101;-72
2022/01/31 01:40:17;;;;;;;32.58;4.53;;;;;;;;;;5011868;28;20139;-72
2022/01/31 01:42:43;;;;;;;20.13;4.85;;;;;;;;;;5011857;28;20494;-71
2022/01/31 01:45:10;;;;;;;27.17;6.25;;;;;;;;;;5027009;28;20407;-72
2022/01/31 01:47:36;;;;;;;30.02;6.22;;;;;;;;;;5027145;28;20391;-71
2022/01/31 01:50:02;;;;;;;18.85;4.45;;;;;;;;;;5011787;28;20030;-71
2022/01/31 01:52:28;;;;;;;29.95;5.10;;;;;;;;;;5011917;28;20018;-72
2022/01/31 01:54:54;;;;;;;30.45;5.28;;;;;;;;;;5011700;28;20022;-72
2022/01/31 01:57:22;;;;;;;28.98;5.32;;;;;;;;;;5011667;28;20037;-71
2022/01/31 01:59:54;;;;;;;30.75;5.60;;;;;;;;;;5011578;28;20403;-72
2022/01/31 02:02:20;;;;;;;26.05;6.10;;;;;;;;;;5011943;28;20034;-72
2022/01/31 02:04:46;;;;;;;32.25;6.15;;;;;;;;;;5011606;28;20033;-72
2022/01/31 02:07:13;;;;;;;27.58;4.72;;;;;;;;;;5011801;28;20384;-72
2022/01/31 02:09:44;;;;;;;29.35;5.65;;;;;;;;;;5012442;28;20089;-72
2022/01/31 02:12:10;;;;;;;28.05;4.75;;;;;;;;;;5011852;28;20029;-72
2022/01/31 02:14:36;;;;;;;21.55;4.43;;;;;;;;;;5026975;28;20022;-71
2022/01/31 02:17:02;;;;;;;39.35;6.55;;;;;;;;;;5027075;28;20040;-73
2022/01/31 02:19:28;;;;;;;31.13;4.40;;;;;;;;;;5011897;28;20061;-73
2022/01/31 02:21:55;;;;;;;24.38;4.57;;;;;;;;;;5015420;28;20119;-72
2022/01/31 02:24:21;;;;;;;26.27;4.68;;;;;;;;;;5031849;28;20048;-72
2022/01/31 02:26:48;;;;;;;30.95;5.50;;;;;;;;;;5034808;28;20489;-72
2022/01/31 02:29:14;;;;;;;22.85;4.13;;;;;;;;;;5050120;28;20030;-72
2022/01/31 02:31:44;;;;;;;23.80;5.07;;;;;;;;;;5050273;28;20071;-72
2022/01/31 02:34:10;;;;;;;28.05;4.63;;;;;;;;;;5033776;28;20113;-72
2022/01/31 02:36:36;;;;;;;19.30;4.47;;;;;;;;;;5035086;28;20052;-72
2022/01/31 02:39:02;;;;;;;24.58;4.60;;;;;;;;;;5034423;28;20053;-72
2022/01/31 02:41:30;;;;;;;28.60;5.22;;;;;;;;;;5034386;28;20026;-72
2022/01/31 02:43:56;;;;;;;26.20;5.30;;;;;;;;;;5034212;28;20072;-72
2022/01/31 02:46:25;;;;;;;26.85;4.78;;;;;;;;;;5034352;28;20029;-72
2022/01/31 02:48:53;;;;;;;27.88;4.55;;;;;;;;;;5034200;28;20112;-72
2022/01/31 02:51:22;;;;;;;26.52;5.00;;;;;;;;;;5034522;28;20021;-72
2022/01/31 02:53:48;;;;;;;23.73;4.25;;;;;;;;;;5032774;28;20060;-71
2022/01/31 02:56:14;;;;;;;25.67;5.40;;;;;;;;;;5034132;28;20526;-72
2022/01/31 02:58:41;;;;;;;26.65;4.95;;;;;;;;;;5034280;28;20460;-72
2022/01/31 03:01:07;;;;;;;26.85;5.03;;;;;;;;;;5032963;28;20164;-71
2022/01/31 03:03:33;;;;;;;30.33;4.68;;;;;;;;;;5049786;28;20471;-72
2022/01/31 03:05:59;;;;;;;26.45;4.78;;;;;;;;;;5034511;28;20029;-72
2022/01/31 03:08:25;;;;;;;21.40;3.83;;;;;;;;;;5034319;28;20025;-72
2022/01/31 03:10:52;;;;;;;28.75;5.53;;;;;;;;;;5034081;28;20048;-72
2022/01/31 03:13:18;;;;;;;19.58;4.78;;;;;;;;;;5033766;28;20068;-72
2022/01/31 03:15:44;;;;;;;28.40;5.38;;;;;;;;;;5033966;28;20026;-72
2022/01/31 03:18:10;;;;;;;35.13;6.03;;;;;;;;;;5034281;28;20113;-72
2022/01/31 03:20:36;;;;;;;25.30;5.90;;;;;;;;;;5033719;28;20060;-72
2022/01/31 03:23:02;;;;;;;25.73;4.78;;;;;;;;;;5027153;28;20026;-72
2022/01/31 03:25:28;;;;;;;31.67;5.75;;;;;;;;;;5029255;28;20034;-72
2022/01/31 03:27:55;;;;;;;36.97;6.25;;;;;;;;;;5014021;28;20034;-73
2022/01/31 03:30:23;;;;;;;19.65;4.55;;;;;;;;;;5014151;28;20464;-73
2022/01/31 03:32:49;;;;;;;20.83;4.65;;;;;;;;;;5014416;28;20022;-72
2022/01/31 03:35:16;;;;;;;29.52;6.35;;;;;;;;;;5013968;28;20539;-72
2022/01/31 03:37:42;;;;;;;20.92;4.43;;;;;;;;;;5029193;28;20038;-72
2022/01/31 03:40:08;;;;;;;26.98;5.13;;;;;;;;;;5029166;28;20040;-72
2022/01/31 03:42:35;;;;;;;29.75;5.78;;;;;;;;;;5013794;28;20030;-72
2022/01/31 03:45:02;;;;;;;33.97;5.22;;;;;;;;;;5013596;28;20381;-72
2022/01/31 03:47:28;;;;;;;27.75;5.28;;;;;;;;;;5013633;28;20022;-72
2022/01/31 03:49:54;;;;;;;21.70;4.47;;;;;;;;;;5013377;28;20038;-72
2022/01/31 03:52:20;;;;;;;32.08;6.25;;;;;;;;;;5013752;28;20018;-72
2022/01/31 03:54:46;;;;;;;20.75;4.63;;;;;;;;;;5028627;28;20566;-71
2022/01/31 03:57:13;;;;;;;36.70;5.18;;;;;;;;;;5013800;28;20447;-72
2022/01/31 03:59:39;;;;;;;27.88;4.88;;;;;;;;;;5013545;28;20368;-72
2022/01/31 04:02:06;;;;;;;29.40;6.57;;;;;;;;;;5028911;28;20459;-72
2022/01/31 04:04:32;;;;;;;24.13;5.43;;;;;;;;;;5013233;28;20056;-72
2022/01/31 04:06:58;;;;;;;30.33;5.40;;;;;;;;;;5028584;28;20086;-72
2022/01/31 04:09:24;;;;;;;30.17;4.53;;;;;;;;;;5013352;28;20092;-73
2022/01/31 04:11:50;;;;;;;30.98;4.80;;;;;;;;;;5013359;28;20388;-72
2022/01/31 04:14:16;;;;;;;30.63;4.72;;;;;;;;;;5013171;28;20034;-72
2022/01/31 04:16:42;;;;;;;35.25;6.88;;;;;;;;;;5013275;28;20054;-72
2022/01/31 04:19:08;;;;;;;27.67;5.00;;;;;;;;;;5013191;28;20030;-72
2022/01/31 04:21:34;;;;;;;25.20;5.07;;;;;;;;;;5028343;28;20022;-72
2022/01/31 04:24:00;;;;;;;29.88;4.90;;;;;;;;;;5012710;28;20072;-72
2022/01/31 04:26:33;;;;;;;20.70;5.07;;;;;;;;;;5013194;28;20026;-72
2022/01/31 04:29:09;;;;;;;27.70;5.40;;;;;;;;;;5013074;28;20113;-72
2022/01/31 04:31:40;;;;;;;;;;;;;;;;;;;;;
2022/01/31 04:34:04;;;;;;;30.70;5.15;;;;;;;;;;5012793;28;20041;-72
2022/01/31 04:36:30;;;;;;;24.77;6.30;;;;;;;;;;5012840;28;20480;-72
2022/01/31 04:38:56;;;;;;;22.42;5.40;;;;;;;;;;5012848;28;20073;-72
2022/01/31 04:41:22;;;;;;;22.85;4.90;;;;;;;;;;5013012;28;20026;-72
2022/01/31 04:43:49;;;;;;;26.48;5.25;;;;;;;;;;5012161;28;20029;-73
2022/01/31 04:46:15;;;;;;;22.27;4.65;;;;;;;;;;5012762;28;20014;-72
2022/01/31 04:51:19;;;;;;;29.60;4.85;;;;;;;;;;5010902;28;20081;-72
2022/01/31 04:53:45;;;;;;;24.55;5.28;;;;;;;;;;5011712;28;20057;-72
2022/01/31 04:56:11;;;;;;;29.98;5.45;;;;;;;;;;5012341;28;20473;-72
2022/01/31 04:58:37;;;;;;;22.48;4.95;;;;;;;;;;5012405;28;20025;-71
2022/01/31 05:01:03;;;;;;;27.98;5.38;;;;;;;;;;5011777;28;20495;-71
2022/01/31 05:03:30;;;;;;;34.65;5.78;;;;;;;;;;4992408;28;20480;-71
2022/01/31 05:05:56;;;;;;;23.08;4.47;;;;;;;;;;4993171;28;20034;-72
2022/01/31 05:08:26;;;;;;;25.20;4.75;;;;;;;;;;4992738;28;20400;-72
2022/01/31 05:10:52;;;;;;;21.27;4.97;;;;;;;;;;4992554;28;20023;-71
2022/01/31 05:13:18;;;;;;;30.60;6.13;;;;;;;;;;4992593;28;20542;-71
2022/01/31 05:15:45;;;;;;;26.13;4.43;;;;;;;;;;4992410;28;20054;-72
2022/01/31 05:18:11;;;;;;;23.73;3.90;;;;;;;;;;4992505;28;20030;-71
2022/01/31 05:20:37;;;;;;;24.95;4.80;;;;;;;;;;4992401;28;20456;-71
2022/01/31 05:23:06;;;;;;;27.17;5.00;;;;;;;;;;4998619;28;20037;-71
2022/01/31 05:25:33;;;;;;;31.30;4.97;;;;;;;;;;5012235;28;20375;-71
2022/01/31 05:27:59;;;;;;;19.23;5.43;;;;;;;;;;5014242;28;20503;-72
2022/01/31 05:30:25;;;;;;;19.17;4.65;;;;;;;;;;5014310;28;20022;-72
2022/01/31 05:32:51;;;;;;;27.98;4.95;;;;;;;;;;5013691;28;20281;-72
2022/01/31 05:35:17;;;;;;;27.77;5.20;;;;;;;;;;5013503;28;20052;-72
2022/01/31 05:37:43;;;;;;;30.00;5.65;;;;;;;;;;4995348;28;20025;-72
2022/01/31 05:40:09;;;;;;;28.42;5.28;;;;;;;;;;5012141;28;20030;-72
2022/01/31 05:42:35;;;;;;;24.40;4.90;;;;;;;;;;5012159;28;20065;-72
2022/01/31 05:45:01;;;;;;;25.48;4.88;;;;;;;;;;5012074;28;20072;-72
2022/01/31 05:47:27;;;;;;;26.02;5.65;;;;;;;;;;5011879;28;20084;-72
2022/01/31 05:49:53;;;;;;;22.25;5.07;;;;;;;;;;5012163;28;20199;-72
2022/01/31 05:52:19;;;;;;;27.10;5.95;;;;;;;;;;4994285;28;20026;-72
2022/01/31 05:54:45;;;;;;;25.10;5.22;;;;;;;;;;4994803;28;20053;-72
2022/01/31 05:57:12;;;;;;;27.77;6.20;;;;;;;;;;5016118;28;20492;-71
2022/01/31 05:59:41;;;;;;;32.20;6.95;;;;;;;;;;5015683;28;20174;-72
2022/01/31 06:02:07;;;;;;;28.38;5.90;;;;;;;;;;5015679;28;20030;-72
2022/01/31 06:04:33;;;;;;;29.52;5.63;;;;;;;;;;5015753;28;20037;-73
2022/01/31 06:07:00;;;;;;;26.40;5.55;;;;;;;;;;5015422;28;20083;-73
2022/01/31 06:09:28;;;;;;;28.83;5.78;;;;;;;;;;5015455;28;20037;-71
2022/01/31 06:11:54;;;;;;;29.88;6.22;;;;;;;;;;5015422;28;20117;-71
2022/01/31 06:14:20;;;;;;;18.27;4.32;;;;;;;;;;4997411;28;20346;-72
2022/01/31 06:16:46;;;;;;;19.38;5.13;;;;;;;;;;4997460;28;20030;-72
2022/01/31 06:19:13;;;;;;;21.95;5.53;;;;;;;;;;5015068;28;20435;-73
2022/01/31 06:21:39;;;;;;;25.20;5.53;;;;;;;;;;5015474;28;20133;-73
2022/01/31 06:24:09;;;;;;;20.17;5.18;;;;;;;;;;5015238;28;20022;-71
2022/01/31 06:26:35;;;;;;;21.43;4.70;;;;;;;;;;5012852;28;20029;-71
2022/01/31 06:29:01;;;;;;;21.52;4.80;;;;;;;;;;5015155;28;20043;-71
2022/01/31 06:31:29;;;;;;;24.13;5.05;;;;;;;;;;5016234;28;20531;-72
2022/01/31 06:33:55;;;;;;;26.77;4.78;;;;;;;;;;4997272;28;20049;-72
2022/01/31 06:36:23;;;;;;;20.73;4.82;;;;;;;;;;5014925;28;20058;-71
2022/01/31 06:38:49;;;;;;;18.90;4.63;;;;;;;;;;5014595;28;20026;-72
2022/01/31 06:41:17;;;;;;;21.38;5.20;;;;;;;;;;5012302;28;20510;-73
2022/01/31 06:43:44;;;;;;;31.20;5.07;;;;;;;;;;5007603;28;20303;-72
2022/01/31 06:46:10;;;;;;;20.00;5.22;;;;;;;;;;5011076;28;20030;-72
2022/01/31 06:48:36;;;;;;;29.30;5.25;;;;;;;;;;5014680;28;20062;-72
2022/01/31 06:51:02;;;;;;;17.92;4.13;;;;;;;;;;4996569;28;20072;-73
2022/01/31 06:53:28;;;;;;;25.85;4.53;;;;;;;;;;5014405;28;20439;-71
2022/01/31 06:55:55;;;;;;;31.75;5.13;;;;;;;;;;5014615;28;20029;-72
2022/01/31 06:58:21;;;;;;;20.67;5.45;;;;;;;;;;5014434;28;20080;-72
2022/01/31 07:00:48;;;;;;;18.92;4.97;;;;;;;;;;5014487;28;20503;-71
2022/01/31 07:03:14;;;;;;;21.73;5.00;;;;;;;;;;5014356;28;20396;-71
2022/01/31 07:05:40;;;;;;;20.38;5.05;;;;;;;;;;5014438;28;20121;-71
2022/01/31 07:08:06;;;;;;;28.95;5.30;;;;;;;;;;5014348;28;20515;-71
2022/01/31 07:10:33;;;;;;;23.58;6.20;;;;;;;;;;5014024;28;20502;-71
2022/01/31 07:13:01;;;;;;;20.20;4.75;;;;;;;;;;5014233;28;20022;-70
2022/01/31 07:15:27;;;;;;;17.90;4.25;;;;;;;;;;4996479;28;20395;-72
2022/01/31 07:17:54;;;;;;;20.60;4.70;;;;;;;;;;5013882;28;20037;-73
2022/01/31 07:20:39;;;;;;;18.35;4.30;;;;;;;;;;5014238;28;20034;-73
2022/01/31 07:23:13;;;;;;;17.77;4.95;;;;;;;;;;5007462;28;20029;-71
2022/01/31 07:25:39;;;;;;;20.20;4.95;;;;;;;;;;4976938;28;20030;-72
2022/01/31 07:28:08;;;;;;;27.23;5.10;;;;;;;;;;4994325;28;20543;-71
2022/01/31 07:30:35;;;;;;;16.13;4.43;;;;;;;;;;4976848;28;20032;-72
2022/01/31 07:33:01;;;;;;;20.50;4.57;;;;;;;;;;4994061;28;20033;-71
2022/01/31 07:35:27;;;;;;;21.40;4.65;;;;;;;;;;4994206;28;20031;-72
2022/01/31 07:37:53;;;;;;;16.42;4.10;;;;;;;;;;4994282;28;20105;-72
2022/01/31 07:40:19;;;;;;;19.23;5.10;;;;;;;;;;4994454;28;20049;-72
2022/01/31 07:42:45;;;;;;;22.55;4.40;;;;;;;;;;4994260;28;20550;-72
2022/01/31 07:45:11;;;;;;;25.58;4.57;;;;;;;;;;4994987;28;20026;-72
2022/01/31 07:47:38;;;;;;;24.58;5.20;;;;;;;;;;4994005;28;20031;-72
2022/01/31 07:50:04;;;;;;;22.67;4.63;;;;;;;;;;4993755;28;20393;-71
2022/01/31 07:52:31;;;;;;;28.55;6.13;;;;;;;;;;4993783;28;20481;-71
2022/01/31 07:54:57;;;;;;;21.75;5.03;;;;;;;;;;4993509;28;20506;-72
2022/01/31 07:57:24;;;;;;;11.63;4.30;;;;;;;;;;4993687;28;20489;-72
2022/01/31 07:59:51;;;;;;;16.08;4.30;;;;;;;;;;4995933;28;20519;-72
2022/01/31 08:02:17;;;;;;;22.15;5.03;;;;;;;;;;4990824;28;20018;-73
2022/01/31 08:04:43;;;;;;;18.60;3.70;;;;;;;;;;5006329;28;20076;-71
2022/01/31 08:07:09;;;;;;;19.73;3.90;;;;;;;;;;5013642;28;20503;-71
2022/01/31 08:09:35;;;;;;;14.15;4.28;;;;;;;;;;5022771;28;20033;-71
2022/01/31 08:12:01;;;;;;;21.85;5.18;;;;;;;;;;5027738;28;20030;-72
2022/01/31 08:14:27;;;;;;;17.88;3.97;;;;;;;;;;5022564;28;20018;-71
2022/01/31 08:16:53;;;;;;;9.68;3.60;;;;;;;;;;5014434;28;20029;-73
2022/01/31 08:19:19;;;;;;;16.00;4.13;;;;;;;;;;5012903;28;20041;-71
2022/01/31 08:21:45;;;;;;;20.20;4.50;;;;;;;;;;5011531;28;20026;-71
2022/01/31 08:24:11;;;;;;;14.98;4.22;;;;;;;;;;5010789;28;20484;-72
2022/01/31 08:26:39;;;;;;;17.73;4.95;;;;;;;;;;5011160;28;20075;-73
2022/01/31 08:29:18;;;;;;;14.88;3.67;;;;;;;;;;5011204;28;20022;-72
2022/01/31 08:31:47;;;;;;;16.95;3.95;;;;;;;;;;5010074;28;20022;-76
2022/01/31 08:36:42;;;;;;;15.38;3.85;;;;;;;;;;5012401;28;20072;-76
2022/01/31 08:39:18;;;;;;;15.63;3.85;;;;;;;;;;4994801;28;20426;-76
2022/01/31 08:41:45;;;;;;;14.43;3.95;;;;;;;;;;5013485;28;20029;-77
2022/01/31 08:44:13;;;;;;;11.63;3.33;;;;;;;;;;5012401;28;20391;-74
2022/01/31 08:46:40;;;;;;;48.47;19.70;;;;;;;;;;5012513;28;20026;-75
2022/01/31 08:49:09;;;;;;;71.78;26.13;;;;;;;;;;5012066;28;20118;-75
2022/01/31 08:51:35;;;;;;;62.85;20.35;;;;;;;;;;5012575;28;20045;-75
2022/01/31 08:54:03;;;;;;;45.80;16.63;;;;;;;;;;5012314;28;20033;-75
2022/01/31 08:56:29;;;;;;;18.60;6.00;;;;;;;;;;5013020;28;20032;-74
2022/01/31 08:58:56;;;;;;;41.20;14.27;;;;;;;;;;4995796;28;20022;-74
2022/01/31 09:01:23;;;;;;;86.43;33.97;;;;;;;;;;5006538;28;20382;-72
2022/01/31 09:06:26;;;;;;;20.25;6.57;;;;;;;;;;4991818;28;20031;-69
2022/01/31 09:08:55;;;;;;;16.92;3.97;;;;;;;;;;4999438;28;20030;-70
2022/01/31 09:11:20;;;;;;;20.63;6.60;;;;;;;;;;5023728;28;20105;-70
2022/01/31 09:13:47;;;;;;;20.73;6.90;;;;;;;;;;5031539;28;20053;-70
2022/01/31 09:16:13;;;;;;;24.65;8.70;;;;;;;;;;5013875;28;20153;-71
2022/01/31 09:18:39;;;;;;;19.05;5.75;;;;;;;;;;5031532;28;20032;-70
2022/01/31 09:21:05;;;;;;;25.35;9.50;;;;;;;;;;5032005;28;20038;-70
2022/01/31 09:23:31;;;;;;;40.67;13.38;;;;;;;;;;5031426;28;20037;-76
2022/01/31 09:25:57;;;;;;;23.65;7.72;;;;;;;;;;5031679;28;20029;-71
2022/01/31 09:28:24;;;;;;;32.25;10.90;;;;;;;;;;5031814;28;20145;-72
2022/01/31 09:30:52;;;;;;;35.78;11.65;;;;;;;;;;5018934;28;20133;-71
2022/01/31 09:33:18;;;;;;;24.30;9.50;;;;;;;;;;5038139;28;20049;-72
2022/01/31 09:35:45;;;;;;;24.02;6.30;;;;;;;;;;5026679;28;20058;-71
2022/01/31 09:38:13;;;;;;;24.98;8.65;;;;;;;;;;5018161;28;20109;-72
2022/01/31 09:40:40;;;;;;;18.10;5.57;;;;;;;;;;5018360;28;20032;-72
2022/01/31 09:43:26;;;;;;;22.73;7.78;;;;;;;;;;5017981;28;20487;-70
2022/01/31 09:48:33;;;;;;;17.50;6.43;;;;;;;;;;5018164;28;20033;-71
2022/01/31 09:51:04;;;;;;;20.63;5.82;;;;;;;;;;5017865;28;20030;-71
2022/01/31 09:53:31;;;;;;;17.98;6.15;;;;;;;;;;5000388;28;20399;-71
2022/01/31 09:55:57;;;;;;;23.70;6.10;;;;;;;;;;5018395;28;20033;-70
2022/01/31 09:58:29;;;;;;;12.00;5.00;;;;;;;;;;5018183;28;20465;-70
2022/01/31 10:01:24;;;;;;;33.08;11.32;;;;;;;;;;5017908;28;20022;-71
2022/01/31 10:03:53;;;;;;;21.25;6.60;;;;;;;;;;5001097;28;20038;-71
2022/01/31 10:06:20;;;;;;;22.48;6.57;;;;;;;;;;4999772;28;20056;-71
2022/01/31 10:08:46;;;;;;;22.17;6.38;;;;;;;;;;5017660;28;20170;-72
2022/01/31 10:11:27;;;;;;;15.55;5.28;;;;;;;;;;5018036;28;20026;-71
2022/01/31 10:16:45;;;;;;;15.73;4.95;;;;;;;;;;5017998;28;20041;-71
2022/01/31 10:19:12;;;;;;;18.38;6.55;;;;;;;;;;5017792;28;20029;-72
2022/01/31 10:21:53;;;;;;;23.63;7.80;;;;;;;;;;5000412;28;20184;-70
2022/01/31 10:24:19;;;;;;;;;;;;;;;;;;5018247;28;20022;-70
2022/01/31 10:26:45;;;;;;;14.48;3.95;;;;;;;;;;5000304;28;19960;-71
2022/01/31 10:29:15;;;;;;;19.40;4.32;;;;;;;;;;5018272;28;20396;-72
2022/01/31 10:31:55;;;;;;;18.52;5.07;;;;;;;;;;5018072;28;20057;-72
2022/01/31 10:34:23;;;;;;;17.17;5.22;;;;;;;;;;5000152;28;20030;-71
2022/01/31 10:36:49;;;;;;;18.90;4.47;;;;;;;;;;5018231;28;20100;-72
2022/01/31 10:43:12;;;;;;;18.50;4.97;;;;;;;;;;5018108;28;20475;-71
2022/01/31 10:53:38;;;;;;;12.05;4.97;;;;;;;;;;4978326;28;20034;-70
2022/01/31 10:56:09;;;;;;;14.18;4.60;;;;;;;;;;5014316;28;20028;-71
2022/01/31 10:58:35;;;;;;;;;;;;;;;;;;5016038;28;20034;-71
2022/01/31 11:01:15;;;;;;;14.25;4.18;;;;;;;;;;5013572;28;19906;-71
2022/01/31 11:03:41;;;;;;;14.18;4.30;;;;;;;;;;5015438;28;20105;-71
2022/01/31 11:06:10;;;;;;;17.73;4.63;;;;;;;;;;5015685;28;20060;-71
2022/01/31 11:08:36;;;;;;;15.95;4.35;;;;;;;;;;5015390;28;20045;-70
2022/01/31 11:11:08;;;;;;;17.60;4.15;;;;;;;;;;5015516;28;20026;-72
2022/01/31 11:13:38;;;;;;;17.83;6.68;;;;;;;;;;5015482;28;20105;-70
2022/01/31 11:16:07;;;;;;;18.30;6.82;;;;;;;;;;5015227;28;20018;-71
2022/01/31 11:18:34;;;;;;;21.65;8.57;;;;;;;;;;5015382;28;20017;-71
2022/01/31 11:21:04;;;;;;;17.73;6.65;;;;;;;;;;5015335;28;20030;-71
2022/01/31 11:23:33;;;;;;;9.32;3.70;;;;;;;;;;5014889;28;20026;-70
2022/01/31 11:26:00;;;;;;;10.27;4.20;;;;;;;;;;5015405;28;20053;-71
2022/01/31 11:28:31;;;;;;;14.13;4.63;;;;;;;;;;5012824;28;20376;-70
2022/01/31 11:30:57;;;;;;;18.05;5.65;;;;;;;;;;5014348;28;20026;-71
2022/01/31 11:33:24;;;;;;;8.35;4.47;;;;;;;;;;5013993;28;20032;-72
2022/01/31 11:35:50;;;;;;;15.07;6.65;;;;;;;;;;5014104;28;20101;-72
2022/01/31 11:38:17;;;;;;;11.02;3.80;;;;;;;;;;5014224;28;20022;-70
2022/01/31 11:40:43;;;;;;;13.18;5.22;;;;;;;;;;5014304;28;20037;-71
2022/01/31 11:43:10;;;;;;;10.70;4.03;;;;;;;;;;5012801;28;20538;-72
2022/01/31 11:45:41;;;;;;;13.77;5.65;;;;;;;;;;5014693;28;20037;-70
2022/01/31 11:48:24;;;;;;;12.80;5.78;;;;;;;;;;5015125;28;20037;-72
2022/01/31 11:50:53;;;;;;;11.52;4.65;;;;;;;;;;5014372;28;20112;-72
2022/01/31 11:53:34;;;;;;;14.40;5.00;;;;;;;;;;5012135;28;20030;-71
2022/01/31 11:56:00;;;;;;;;;;;;;;;;;;5014994;28;20022;-72
2022/01/31 11:58:26;;;;;;;12.27;5.93;;;;;;;;;;5013577;28;19916;-72
2022/01/31 12:00:52;;;;;;;11.68;4.45;;;;;;;;;;5014835;28;20030;-72
2022/01/31 12:03:18;;;;;;;9.57;4.75;;;;;;;;;;5011068;28;20046;-71
2022/01/31 12:05:45;;;;;;;10.25;5.13;;;;;;;;;;4998629;28;20105;-71
2022/01/31 12:08:17;;;;;;;12.63;4.40;;;;;;;;;;5016300;28;20026;-72
2022/01/31 12:10:46;;;;;;;12.55;5.25;;;;;;;;;;5018386;28;20018;-71
2022/01/31 12:13:34;;;;;;;7.30;4.45;;;;;;;;;;5016983;28;20068;-72
2022/01/31 12:16:23;;;;;;;7.38;4.50;;;;;;;;;;5015310;28;20037;-71
2022/01/31 12:19:17;;;;;;;4.68;2.50;;;;;;;;;;5014239;28;20105;-72
2022/01/31 12:22:00;;;;;;;7.28;4.10;;;;;;;;;;5012956;28;20049;-72
2022/01/31 12:24:38;;;;;;;4.60;3.05;;;;;;;;;;5013523;28;20071;-72
2022/01/31 12:27:08;;;;;;;8.18;3.92;;;;;;;;;;5009628;28;20079;-71
2022/01/31 12:29:36;;;;;;;4.30;2.67;;;;;;;;;;5010185;28;20038;-72
2022/01/31 12:32:13;;;;;;;4.70;2.80;;;;;;;;;;5003465;28;20026;-73
2022/01/31 12:34:48;;;;;;;4.13;2.28;;;;;;;;;;5018061;28;20384;-73
2022/01/31 12:37:14;;;;;;;6.88;3.47;;;;;;;;;;5017362;28;20509;-73
2022/01/31 12:39:43;;;;;;;3.78;2.78;;;;;;;;;;5014010;28;20105;-74
2022/01/31 12:42:42;;;;;;;4.72;2.95;;;;;;;;;;4994627;28;20033;-73
2022/01/31 12:45:09;;;;;;;5.70;2.67;;;;;;;;;;4995019;28;20110;-73
2022/01/31 12:47:35;;;;;;;3.90;2.63;;;;;;;;;;5009379;28;20022;-73
2022/01/31 12:50:20;;;;;;;3.33;2.25;;;;;;;;;;5008846;28;20037;-73
2022/01/31 12:52:46;;;;;;;3.17;2.30;;;;;;;;;;4993903;28;20034;-74
2022/01/31 12:55:13;;;;;;;5.43;2.85;;;;;;;;;;5002633;28;20080;-73
2022/01/31 12:58:05;;;;;;;5.70;2.85;;;;;;;;;;5009656;28;20443;-73
2022/01/31 13:00:40;;;;;;;5.28;2.85;;;;;;;;;;5010460;28;20409;-73
2022/01/31 13:03:07;;;;;;;5.18;2.72;;;;;;;;;;5008253;28;20022;-73
2022/01/31 13:05:33;;;;;;;5.38;3.80;;;;;;;;;;4993264;28;20026;-74
2022/01/31 13:07:59;;;;;;;6.32;3.50;;;;;;;;;;4993422;28;20029;-74
2022/01/31 13:10:25;;;;;;;7.82;4.70;;;;;;;;;;5008364;28;20073;-73
2022/01/31 13:13:04;;;;;;;3.75;2.40;;;;;;;;;;4993297;28;20049;-73
2022/01/31 13:15:30;;;;;;;5.10;3.88;;;;;;;;;;4993257;28;20366;-73
2022/01/31 13:18:07;;;;;;;4.22;3.00;;;;;;;;;;4993527;28;20031;-74
2022/01/31 13:20:33;;;;;;;5.40;2.97;;;;;;;;;;5008607;28;20037;-74
2022/01/31 13:23:00;;;;;;;6.60;3.17;;;;;;;;;;5008529;28;20026;-73
2022/01/31 13:25:27;;;;;;;8.23;4.13;;;;;;;;;;4993369;28;20511;-73
2022/01/31 13:27:53;;;;;;;7.28;3.80;;;;;;;;;;4993698;28;20037;-74
2022/01/31 13:30:19;;;;;;;6.85;4.03;;;;;;;;;;4993320;28;20099;-74
2022/01/31 13:32:46;;;;;;;5.68;3.88;;;;;;;;;;4992930;28;20027;-74
2022/01/31 13:35:12;;;;;;;4.55;2.95;;;;;;;;;;4993486;28;20026;-74
2022/01/31 13:37:50;;;;;;;4.63;3.10;;;;;;;;;;5001278;28;20084;-74
2022/01/31 13:40:19;;;;;;;4.40;3.05;;;;;;;;;;5013083;28;20030;-74
2022/01/31 13:42:46;;;;;;;5.53;3.33;;;;;;;;;;5011485;28;20157;-72
2022/01/31 13:45:16;;;;;;;6.93;3.05;;;;;;;;;;5012838;28;20531;-74
2022/01/31 13:47:49;;;;;;;6.17;3.50;;;;;;;;;;5013029;28;20038;-73
2022/01/31 13:50:15;;;;;;;4.55;2.97;;;;;;;;;;5012941;28;20407;-73
2022/01/31 13:52:55;;;;;;;4.38;3.10;;;;;;;;;;5011499;28;20022;-73
2022/01/31 13:55:21;;;;;;;4.93;3.20;;;;;;;;;;5011416;28;20030;-73
2022/01/31 13:57:48;;;;;;;7.25;3.65;;;;;;;;;;5013055;28;20036;-73
2022/01/31 14:00:14;;;;;;;9.13;3.95;;;;;;;;;;5012936;28;20060;-73
2022/01/31 14:02:40;;;;;;;4.78;3.53;;;;;;;;;;5011357;28;20579;-73
2022/01/31 14:05:24;;;;;;;7.38;4.22;;;;;;;;;;5012737;28;20105;-73
2022/01/31 14:08:04;;;;;;;7.15;4.03;;;;;;;;;;5012577;28;20030;-73
2022/01/31 14:10:31;;;;;;;6.75;3.88;;;;;;;;;;5010893;28;20549;-73
2022/01/31 14:13:01;;;;;;;5.22;3.55;;;;;;;;;;5010875;28;20117;-72
2022/01/31 14:15:28;;;;;;;7.45;4.55;;;;;;;;;;5012671;28;20025;-74
2022/01/31 14:17:54;;;;;;;7.07;4.55;;;;;;;;;;5015090;28;20032;-73
2022/01/31 14:20:20;;;;;;;4.90;4.20;;;;;;;;;;5015907;28;20542;-73
2022/01/31 14:22:57;;;;;;;5.90;4.25;;;;;;;;;;5015495;28;20500;-74
2022/01/31 14:25:23;;;;;;;7.88;4.75;;;;;;;;;;5014219;28;20030;-73
2022/01/31 14:27:53;;;;;;;9.25;5.05;;;;;;;;;;5015715;28;20113;-73
2022/01/31 14:30:20;;;;;;;7.55;5.65;;;;;;;;;;5015764;28;20113;-73
2022/01/31 14:32:56;;;;;;;9.57;5.57;;;;;;;;;;5013978;28;20126;-72
2022/01/31 14:35:23;;;;;;;9.70;6.13;;;;;;;;;;5014456;28;20072;-74
2022/01/31 14:37:55;;;;;;;9.40;5.65;;;;;;;;;;5015986;28;20030;-74
2022/01/31 14:41:06;;;;;;;8.10;5.53;;;;;;;;;;5015220;28;20022;-73
2022/01/31 14:43:19;;;;;;;7.85;5.60;;;;;;;;;;5015084;28;20087;-73
2022/01/31 14:48:37;;;;;;;8.70;6.28;;;;;;;;;;5015054;28;20033;-73
2022/01/31 14:51:03;;;;;;;8.88;6.60;;;;;;;;;;5013377;28;20113;-73
2022/01/31 14:53:32;;;;;;;10.38;6.90;;;;;;;;;;5013793;28;20114;-73
2022/01/31 14:55:58;;;;;;;10.07;7.70;;;;;;;;;;5015161;28;20022;-73
2022/01/31 14:58:24;;;;;;;9.45;7.78;;;;;;;;;;5010260;28;20030;-73
2022/01/31 15:00:50;;;;;;;11.85;7.43;;;;;;;;;;4995748;28;20030;-74
2022/01/31 15:03:19;;;;;;;12.23;7.03;;;;;;;;;;4995435;28;20114;-73
2022/01/31 15:05:45;;;;;;;9.88;7.25;;;;;;;;;;4993802;28;20180;-73
2022/01/31 15:08:11;;;;;;;10.25;7.20;;;;;;;;;;5012092;28;20140;-73
2022/01/31 15:10:38;;;;;;;11.40;9.13;;;;;;;;;;5013296;28;20468;-73
2022/01/31 15:13:04;;;;;;;15.93;10.10;;;;;;;;;;5012042;28;20030;-73